North Natick, Massachusetts
Current Conditions -  °F | °C
As of 5:39 PM on Tuesday 21 Oct 2014 (Local Time) from KOWD Reporting Station
Broken Clouds Broken Clouds  
Wind Chill: 59°   Ceiling: 800
Heat Index: 59°   Visibility: 10mi
Dew Point: 56°   Wind: 5mph
Humidity: 90%   Direction: 40°NE
Pressure: 29.91"   Gusts: NA
Location:  42.2868°N, 71.3531°W
Report Text: KOWD 212139Z 04004KT 10SM BKN008 15/13 A2991 RMK AO2 T01500133
Loading
Personal Weather Stations






























Interactive Weather Map
Tropical Storm Tracking
New forecast layout! Learn more

10-Day Weather Forecast

Advertisements
Track Severe Weather on mobile